Latest Weather Observations for Lameroo AWS

IDS60801

Issued at 2:05 pm CDT Saturday 1 November 2014 (issued every 30 minutes, with the page automatically refreshed every 10 minutes)

About weather observations | Map of weather stations | Latest weather observations for SA | Other Formats
Station Details ID: 025562 Name: AUSTIN PLAINS Lat: -35.38 Lon: 140.54 Height: 110.08 m
Data from the previous 72 hours. | See also: Recent months at Lameroo AWS
Date/Time
CDT
Temp
°C
App
Temp
°C
Dew
Point
Rel
Hum
%
Delta-T
°C
Wind Press
QNH
hPa
Press
MSL
hPa
Rain
since 9 am
mm
Dir
 
Spd
km/h
Gust
km/h
Spd
kts
Gust
kts
01/02:00pm 17.3 6.4 -1.4 28 7.9 SW 46 61 25 33 1014.9 1014.6 0.0
01/01:31pm 16.9 6.9 2.1 37 6.7 SW 44 63 24 34 1014.8 1014.5 0.0
01/01:30pm 16.4 5.9 1.7 37 6.6 SW 46 63 25 34 1014.8 1014.5 0.0
01/01:00pm 17.4 6.6 -0.3 30 7.6 SW 46 67 25 36 1014.3 1014.0 0.0
01/12:30pm 16.8 7.0 0.0 32 7.3 SW 41 61 22 33 1014.1 1013.8 0.0
01/12:08pm 16.4 5.6 2.1 38 6.4 WSW 48 67 26 36 1014.2 1013.9 0.0
01/12:00pm 16.0 5.0 3.1 42 5.9 SW 50 67 27 36 1014.1 1013.8 0.0
01/11:33am 17.1 6.9 1.1 34 7.1 WSW 44 63 24 34 1013.6 1013.4 0.0
01/11:30am 16.3 5.3 0.4 34 6.9 WSW 48 67 26 36 1013.6 1013.4 0.0
01/11:00am 15.6 6.1 1.7 39 6.2 SW 41 63 22 34 1013.3 1013.1 0.0
01/10:55am 15.6 5.7 1.7 39 6.2 SW 43 63 23 34 1013.5 1013.3 0.0
01/10:30am 16.3 7.4 3.0 41 6.1 SW 39 56 21 30 1013.3 1013.1 0.0
01/10:03am 15.9 5.0 1.2 37 6.5 WSW 48 67 26 36 1012.6 1012.5 0.0
01/10:00am 15.5 4.5 0.9 37 6.4 WSW 48 65 26 35 1012.7 1012.6 0.0
01/09:37am 14.8 5.3 3.9 48 5.0 SW 43 61 23 33 1012.3 1012.2 0.0
01/09:30am 14.8 5.2 4.2 49 4.9 SW 44 59 24 32 1012.2 1012.1 0.0
01/09:00am 14.1 4.9 6.2 59 3.8 SW 44 59 24 32 1011.5 1011.4 0.6
01/08:31am 13.2 7.1 6.8 65 3.1 SW 28 52 15 28 1011.0 1010.9 0.6
01/08:30am 13.4 7.8 7.2 66 3.0 SW 26 52 14 28 1011.0 1010.9 0.6
01/08:00am 12.2 6.7 7.5 73 2.3 WSW 26 39 14 21 1010.5 1010.4 0.6
01/07:30am 11.7 7.2 8.4 80 1.6 WSW 22 32 12 17 1009.8 1009.7 0.6
01/07:00am 10.9 6.8 8.7 86 1.1 SW 20 30 11 16 1009.2 1009.1 0.6
01/06:30am 11.3 6.3 9.7 90 0.8 SW 26 35 14 19 1008.6 1008.5 0.6
01/06:00am 11.4 5.8 10.1 92 0.7 SW 30 39 16 21 1008.1 1008.0 0.6
01/05:30am 11.8 4.9 10.4 91 0.7 SW 37 50 20 27 1007.2 1007.1 0.6
01/05:16am 12.4 6.5 11.3 93 0.6 SW 33 59 18 32 1006.6 1006.4 0.6
01/05:00am 12.7 7.8 12.7 100 0.0 SW 30 41 16 22 1006.5 1006.3 0.6
01/04:30am 12.9 8.5 11.6 92 0.7 W 26 37 14 20 1006.0 1005.8 0.4
01/04:00am 13.1 10.7 11.3 89 1.0 W 15 26 8 14 1005.6 1005.4 0.4
01/03:30am 12.8 9.5 11.0 89 1.0 W 19 24 10 13 1005.5 1005.3 0.4
01/03:00am 13.3 9.5 11.0 86 1.2 WSW 22 32 12 17 1005.2 1005.0 0.4
01/02:30am 13.6 9.2 11.8 89 1.0 WSW 26 33 14 18 1005.0 1004.8 0.4
01/02:00am 13.6 9.7 12.0 90 0.9 W 24 33 13 18 1005.2 1005.0 0.4
01/01:30am 13.6 10.4 12.0 90 0.9 WSW 20 28 11 15 1004.7 1004.5 0.4
01/01:00am 13.7 10.7 11.9 89 1.0 WSW 19 24 10 13 1004.2 1004.1 0.4
01/12:30am 13.9 12.2 12.3 90 0.9 WSW 13 19 7 10 1003.7 1003.6 0.4
01/12:00am 13.9 12.8 11.9 88 1.1 SSW 9 13 5 7 1003.7 1003.6 0.4
 
Date/Time
CDT
Temp
°C
App
Temp
°C
Dew
Point
Rel
Hum
%
Delta-T
°C
Wind Press
QNH
hPa
Press
MSL
hPa
Rain
since 9 am
mm
Dir
 
Spd
km/h
Gust
km/h
Spd
kts
Gust
kts
31/11:30pm 15.1 10.4 10.7 75 2.3 SSW 26 32 14 17 1003.8 1003.7 0.0
31/11:00pm 15.6 11.5 11.4 76 2.3 SSW 24 33 13 18 1004.4 1004.2 0.0
31/10:30pm 15.8 10.1 11.8 77 2.2 SW 33 52 18 28 1005.0 1004.8 0.0
31/10:24pm 15.9 10.8 11.9 77 2.2 SW 30 52 16 28 1005.0 1004.8 0.0
31/10:00pm 16.2 10.9 12.4 78 2.1 SW 32 44 17 24 1005.0 1004.8 0.0
31/09:30pm 16.7 10.2 12.8 78 2.2 SW 39 54 21 29 1004.4 1004.2 0.0
31/09:00pm 17.1 10.3 13.2 78 2.2 SW 41 56 22 30 1002.5 1002.4 0.0
31/08:38pm 18.7 12.5 12.7 68 3.4 SW 37 57 20 31 1001.3 1001.2 0.0
31/08:30pm 19.6 12.7 11.6 60 4.5 SW 39 56 21 30 1001.5 1001.4 0.0
31/08:16pm 22.2 16.3 9.0 43 7.1 SW 30 48 16 26 1001.0 1000.9 0.0
31/08:00pm 23.1 16.1 8.4 39 7.8 SSW 35 48 19 26 1000.1 1000.0 0.0
31/07:30pm 24.8 17.1 7.0 32 9.4 SW 37 46 20 25 999.9 999.8 0.0
31/07:00pm 26.7 19.7 3.9 23 11.5 SW 30 43 16 23 998.9 998.7 0.0
31/06:31pm 30.8 23.3 1.2 15 14.6 SW 30 48 16 26 998.1 997.9 0.0
31/06:30pm 31.4 24.7 1.7 15 14.9 SW 26 48 14 26 998.1 997.9 0.0
31/06:00pm 33.0 26.2 0.9 13 16.1 WSW 26 35 14 19 998.0 997.8 0.0
31/05:30pm 33.9 26.5 1.6 13 16.4 WSW 30 41 16 22 998.1 997.9 0.0
31/05:00pm 35.1 26.3 1.5 12 17.1 W 37 54 20 29 998.1 997.9 0.0
31/04:52pm 34.0 24.5 1.7 13 16.4 W 41 54 22 29 998.0 997.8 0.0
31/04:35pm 33.5 26.6 2.4 14 15.9 NNW 28 50 15 27 998.2 998.0 0.0
31/04:30pm 33.5 27.2 1.3 13 16.3 NNW 24 39 13 21 998.3 998.1 0.0
31/04:01pm 34.7 26.8 1.1 12 16.9 NNW 32 50 17 27 998.9 998.7 0.0
31/04:00pm 34.9 26.7 0.1 11 17.3 NW 33 50 18 27 998.9 998.7 0.0
31/03:30pm 34.9 25.3 1.3 12 17.1 NW 41 57 22 31 999.5 999.4 0.0
31/03:17pm 34.8 26.7 1.2 12 17.0 NW 33 56 18 30 999.7 999.6 0.0
31/03:00pm 36.1 26.9 1.0 11 17.9 NW 39 54 21 29 1000.1 1000.0 0.0
31/02:30pm 35.7 26.0 0.7 11 17.7 NW 41 59 22 32 1001.0 1000.9 0.0
31/02:13pm 34.5 25.5 -0.2 11 17.1 NW 37 56 20 30 1001.3 1001.2 0.0
31/02:00pm 35.3 25.6 0.4 11 17.5 NNW 41 52 22 28 1001.6 1001.5 0.0
31/01:39pm 35.0 25.6 0.2 11 17.3 NNW 39 63 21 34 1002.0 1001.9 0.0
31/01:30pm 33.4 24.0 0.1 12 16.4 NNW 39 52 21 28 1002.3 1002.2 0.0
31/01:03pm 32.6 23.9 -0.5 12 16.0 N 35 54 19 29 1002.9 1002.8 0.0
31/01:00pm 32.4 24.2 0.5 13 15.7 N 33 46 18 25 1003.0 1002.9 0.0
31/12:30pm 31.7 23.4 -0.1 13 15.5 N 33 43 18 23 1003.4 1003.3 0.0
31/12:00pm 32.7 24.6 -0.4 12 16.1 N 32 43 17 23 1003.9 1003.8 0.0
31/11:30am 33.1 24.8 -0.1 12 16.3 N 33 48 18 26 1004.7 1004.5 0.0
31/11:00am 30.6 22.4 0.1 14 14.7 N 33 48 18 26 1005.3 1005.1 0.0
31/10:30am 29.1 21.4 -0.1 15 13.9 N 30 46 16 25 1005.8 1005.6 0.0
31/10:00am 27.4 19.9 1.0 18 12.7 NNE 30 39 16 21 1006.4 1006.2 0.0
31/09:30am 26.0 18.0 0.6 19 12.0 NNE 32 41 17 22 1007.1 1007.0 0.0
31/09:00am 23.8 16.4 2.0 24 10.4 NE 30 39 16 21 1007.4 1007.3 0.0
31/08:30am 22.0 16.3 5.0 33 8.5 NE 24 33 13 18 1007.9 1007.8 0.0
31/08:00am 18.6 13.0 5.5 42 6.4 NE 24 33 13 18 1007.8 1007.7 0.0
31/07:30am 17.0 12.5 6.8 51 5.1 NE 20 26 11 14 1008.0 1007.9 0.0
31/07:00am 13.4 9.5 7.0 65 3.1 ENE 17 20 9 11 1008.2 1008.1 0.0
31/06:30am 12.9 9.0 6.9 67 2.9 ENE 17 19 9 10 1008.5 1008.4 0.0
31/06:00am 14.1 10.6 7.2 63 3.4 E 15 17 8 9 1008.6 1008.5 0.0
31/05:30am 13.9 10.5 7.7 66 3.1 ENE 15 17 8 9 1008.6 1008.5 0.0
31/05:00am 13.7 10.3 7.7 67 3.0 ENE 15 17 8 9 1008.6 1008.5 0.0
31/04:30am 13.7 10.7 7.7 67 3.0 E 13 15 7 8 1008.9 1008.8 0.0
31/04:00am 13.1 10.0 7.3 68 2.8 ENE 13 17 7 9 1009.0 1008.9 0.0
31/03:30am 13.2 10.8 7.2 67 2.9 E 9 11 5 6 1009.3 1009.2 0.0
31/03:00am 13.7 10.7 7.5 66 3.1 E 13 17 7 9 1009.4 1009.3 0.0
31/02:30am 14.3 10.8 7.4 63 3.4 E 15 19 8 10 1009.6 1009.5 0.0
31/02:00am 14.6 9.8 7.4 62 3.6 SE 22 26 12 14 1009.8 1009.7 0.0
31/01:30am 14.5 10.6 7.1 61 3.6 ESE 17 20 9 11 1010.6 1010.5 0.0
31/01:00am 14.8 10.9 7.1 60 3.8 SE 17 20 9 11 1011.0 1010.9 0.0
31/12:30am 14.9 10.4 7.0 59 3.9 SE 20 26 11 14 1011.6 1011.5 0.0
31/12:00am 14.8 10.5 7.1 60 3.8 SSE 19 20 10 11 1011.9 1011.8 0.0
 
Date/Time
CDT
Temp
°C
App
Temp
°C
Dew
Point
Rel
Hum
%
Delta-T
°C
Wind Press
QNH
hPa
Press
MSL
hPa
Rain
since 9 am
mm
Dir
 
Spd
km/h
Gust
km/h
Spd
kts
Gust
kts
30/11:30pm 14.8 10.9 7.1 60 3.8 SSE 17 20 9 11 1012.1 1012.0 0.0
30/11:00pm 14.6 11.0 6.7 59 3.9 SSE 15 17 8 9 1012.6 1012.5 0.0
30/10:30pm 15.3 11.3 6.6 56 4.3 S 17 17 9 9 1012.8 1012.7 0.0
30/10:00pm 16.0 12.3 6.2 52 4.8 S 15 17 8 9 1012.8 1012.7 0.0
30/09:30pm 16.8 12.4 4.8 45 5.7 S 17 20 9 11 1012.5 1012.4 0.0
30/09:00pm 18.1 15.0 1.6 33 7.5 SSW 7 11 4 6 1012.2 1012.1 0.0
30/08:58pm 17.7 14.6 -0.1 30 7.7 SSW 6 11 3 6 1012.2 1012.1 0.0
30/08:30pm 22.7 20.9 3.3 28 9.4 SW 2 4 1 2 1012.1 1012.0 0.0
30/08:00pm 21.8 19.3 3.5 30 8.8 SW 6 6 3 3 1012.2 1012.1 0.0
30/07:30pm 22.9 20.2 2.9 27 9.6 SW 6 6 3 3 1012.0 1011.9 0.0
30/07:00pm 24.2 21.5 2.4 24 10.5 WSW 6 9 3 5 1011.9 1011.8 0.0
30/06:30pm 25.7 22.4 2.4 22 11.3 WSW 9 13 5 7 1011.9 1011.8 0.0
30/06:00pm 26.3 23.1 0.9 19 12.1 SSW 7 13 4 7 1011.8 1011.7 0.0
30/05:30pm 27.1 22.7 2.9 21 12.0 WSW 15 20 8 11 1012.0 1011.9 0.0
30/05:00pm 27.4 23.7 2.5 20 12.3 SW 11 19 6 10 1012.1 1012.0 0.0
30/04:30pm 26.8 23.4 2.0 20 12.1 SW 9 28 5 15 1012.2 1012.1 0.0
30/04:00pm 26.4 22.7 2.3 21 11.7 W 11 24 6 13 1012.5 1012.4 0.0
30/03:30pm 26.4 23.1 2.3 21 11.7 W 9 22 5 12 1012.6 1012.5 0.0
30/03:00pm 26.4 22.5 3.6 23 11.4 WSW 13 22 7 12 1013.0 1012.9 0.0
30/02:30pm 25.2 20.3 4.3 26 10.5 WSW 19 28 10 15 1013.5 1013.4 0.0
30/02:00pm 24.4 20.7 4.7 28 9.9 W 13 28 7 15 1014.0 1013.8 0.0
30/01:30pm 23.5 19.0 4.0 28 9.6 WSW 17 24 9 13 1014.4 1014.2 0.0
30/01:00pm 22.6 18.9 4.2 30 9.0 WSW 13 22 7 12 1014.7 1014.6 0.0
30/12:30pm 22.4 18.8 4.9 32 8.7 W 13 20 7 11 1015.1 1015.0 0.0
30/12:00pm 20.9 18.5 5.3 36 7.7 WNW 7 13 4 7 1015.4 1015.3 0.0
30/11:30am 20.4 18.0 7.1 42 6.8 SSW 9 15 5 8 1015.8 1015.7 0.0
30/11:00am 19.3 17.6 7.4 46 6.1 SSW 6 15 3 8 1016.1 1016.0 0.0
30/10:30am 18.5 16.2 7.6 49 5.6 SSW 9 15 5 8 1016.5 1016.4 0.0
30/10:00am 17.1 15.4 7.7 54 4.8 SSW 6 11 3 6 1016.7 1016.6 0.0
30/09:30am 16.3 14.5 7.3 55 4.5 S 6 15 3 8 1016.8 1016.7 0.0
30/09:00am 15.4 12.1 7.9 61 3.8 SSW 15 20 8 11 1017.2 1017.1 0.0
30/08:30am 14.8 11.2 8.3 65 3.3 S 17 20 9 11 1017.0 1016.9 0.0
30/08:00am 13.8 11.4 8.6 71 2.6 S 11 19 6 10 1016.9 1016.8 0.0
30/07:30am 11.7 10.4 10.1 90 0.8 SSE 7 9 4 5 1016.9 1016.8 0.0
30/07:00am 9.5 8.3 9.5 100 0.0 SE 6 7 3 4 1016.0 1015.9 0.0
30/06:30am 8.3 7.2 8.3 100 0.0 E 4 7 2 4 1015.9 1015.8 0.0
30/06:00am 7.0 5.2 7.0 100 0.0 ESE 6 7 3 4 1016.1 1016.0 0.0
30/05:30am 8.5 5.3 8.5 100 0.0 S 15 17 8 9 1016.2 1016.1 0.0
30/05:00am 6.3 3.7 6.3 100 0.0 S 9 11 5 6 1016.3 1016.2 0.0
30/04:30am 7.6 5.0 7.6 100 0.0 S 11 13 6 7 1015.9 1015.8 0.0
30/04:00am 9.4 9.3 9.4 100 0.0 CALM 0 6 0 3 1015.5 1015.4 0.0
30/03:30am 8.5 7.0 8.5 100 0.0 S 6 7 3 4 1015.5 1015.4 0.0
30/03:00am 8.7 7.1 8.7 100 0.0 S 7 9 4 5 1015.8 1015.7 0.0
30/02:30am 8.8 7.1 8.4 97 0.2 S 7 9 4 5 1015.9 1015.8 0.0
30/02:00am 8.4 6.0 7.2 92 0.6 SSW 9 11 5 6 1016.4 1016.3 0.0
30/01:30am 8.4 5.9 6.7 89 0.8 SW 9 11 5 6 1016.5 1016.4 0.0
30/01:00am 9.5 6.8 7.4 87 1.0 SW 11 11 6 6 1016.8 1016.7 0.0
30/12:30am 10.3 7.7 7.9 85 1.2 SSW 11 15 6 8 1017.1 1017.0 0.0
30/12:00am 10.7 8.4 7.6 81 1.5 SSW 9 11 5 6 1016.9 1016.8 0.0
 
Date/Time
CDT
Temp
°C
App
Temp
°C
Dew
Point
Rel
Hum
%
Delta-T
°C
Wind Press
QNH
hPa
Press
MSL
hPa
Rain
since 9 am
mm
Dir
 
Spd
km/h
Gust
km/h
Spd
kts
Gust
kts
29/11:30pm 11.9 9.4 8.2 78 1.8 S 11 15 6 8 1017.1 1017.0 0.0
29/11:00pm 12.5 9.7 8.4 76 2.0 S 13 17 7 9 1016.9 1016.8 0.0
29/10:30pm 13.4 10.3 8.7 73 2.4 S 15 17 8 9 1017.0 1016.9 0.0
29/10:00pm 13.6 10.7 8.2 70 2.7 SSW 13 17 7 9 1017.2 1017.1 0.0
29/09:30pm 15.3 11.2 8.8 65 3.3 S 20 30 11 16 1017.2 1017.1 0.0
29/09:00pm 16.1 12.0 8.8 62 3.8 S 20 28 11 15 1017.0 1016.9 0.0
29/08:30pm 17.0 13.2 8.9 59 4.2 SSW 19 26 10 14 1016.5 1016.4 0.0
29/08:00pm 17.8 13.0 8.9 56 4.6 SSW 24 35 13 19 1016.2 1016.1 0.0
29/07:30pm 19.5 15.1 9.1 51 5.5 SSW 22 32 12 17 1015.9 1015.8 0.0
29/07:00pm 21.1 16.3 8.7 45 6.6 SSW 24 33 13 18 1015.4 1015.3 0.0
29/06:30pm 24.7 21.4 4.5 27 10.1 WSW 11 17 6 9 1015.0 1014.9 0.0
29/06:00pm 25.4 21.7 4.5 26 10.5 W 13 19 7 10 1015.0 1014.9 0.0
29/05:30pm 25.6 20.8 4.7 26 10.6 WSW 19 26 10 14 1015.0 1014.9 0.0
29/05:00pm 25.3 20.8 4.4 26 10.5 WNW 17 26 9 14 1015.2 1015.1 0.0
29/04:30pm 25.0 20.0 4.7 27 10.2 WNW 20 30 11 16 1015.4 1015.3 0.0
29/04:00pm 25.2 21.3 5.4 28 10.1 W 15 32 8 17 1015.6 1015.5 0.0
29/03:30pm 24.6 19.9 5.9 30 9.6 W 20 28 11 15 1015.9 1015.8 0.0
29/03:00pm 23.4 18.7 6.2 33 8.8 WNW 20 28 11 15 1016.3 1016.2 0.0
29/02:30pm 23.2 19.2 6.5 34 8.6 WNW 17 26 9 14 1016.8 1016.7 0.0

Other Formats:

Comma delimited format used in spreadsheet applications
http://www.bom.gov.au/fwo/IDS60801/IDS60801.94690.axf

JavaScript Object Notation format (JSON) in row-major order
http://www.bom.gov.au/fwo/IDS60801/IDS60801.94690.json